Latest Weather Observations for Oenpelli Airport

IDD60801

Issued at 8:01 am CST Monday 27 April 2015 (issued every 30 minutes, with the page automatically refreshed every 10 minutes)

About weather observations | Map of weather stations | Latest weather observations for NT | Other Formats
Station Details ID: 014310 Name: OENPELLI AIRPORT Lat: -12.33 Lon: 133.01 Height: 7.5 m
Data from the previous 72 hours. | See also: Recent months for locations in Northern Territory
Date/Time
CST
Temp
°C
App
Temp
°C
Dew
Point
Rel
Hum
%
Delta-T
°C
Wind Press
QNH
hPa
Press
MSL
hPa
Rain
since 9 am
mm
Dir
 
Spd
km/h
Gust
km/h
Spd
kts
Gust
kts
27/08:00am 25.9 25.4 12.7 44 7.7 ESE 7 13 4 7 1013.7 1013.6 0.0
27/07:30am 24.2 23.3 11.2 44 7.3 SE 7 11 4 6 1013.2 1013.1 0.0
27/07:00am 24.0 22.2 9.6 40 7.8 ESE 9 15 5 8 1012.8 1012.7 0.0
27/06:30am 22.5 21.4 10.6 47 6.5 ESE 7 11 4 6 1012.5 1012.4 0.0
27/06:00am 23.0 22.1 10.8 46 6.8 ESE 6 9 3 5 1012.3 1012.2 0.0
27/05:30am 24.0 22.5 10.7 43 7.4 ESE 9 15 5 8 1012.1 1012.0 0.0
27/05:00am 24.5 22.5 11.5 44 7.3 SE 13 19 7 10 1011.9 1011.8 0.0
27/04:30am 23.9 22.9 12.2 48 6.7 SE 9 13 5 7 1012.0 1011.9 0.0
27/04:00am 24.1 23.1 12.4 48 6.7 SE 9 11 5 6 1012.0 1011.9 0.0
27/03:30am 23.7 22.8 12.7 50 6.3 ESE 9 11 5 6 1012.0 1011.9 0.0
27/03:00am 23.5 23.0 12.5 50 6.3 ESE 7 11 4 6 1012.2 1012.1 0.0
27/02:30am 23.6 23.5 13.2 52 6.0 ESE 6 9 3 5 1012.4 1012.3 0.0
27/02:00am 24.6 24.4 13.5 50 6.5 E 7 11 4 6 1012.6 1012.5 0.0
27/01:30am 24.3 24.3 14.1 53 6.0 E 7 11 4 6 1012.8 1012.7 0.0
27/01:00am 24.9 25.0 14.4 52 6.2 E 7 13 4 7 1013.1 1013.0 0.0
27/12:30am 25.4 25.0 14.2 50 6.6 ESE 9 15 5 8 1013.5 1013.4 0.0
27/12:00am 26.2 25.8 14.0 47 7.2 ESE 9 17 5 9 1013.7 1013.6 0.0
 
Date/Time
CST
Temp
°C
App
Temp
°C
Dew
Point
Rel
Hum
%
Delta-T
°C
Wind Press
QNH
hPa
Press
MSL
hPa
Rain
since 9 am
mm
Dir
 
Spd
km/h
Gust
km/h
Spd
kts
Gust
kts
26/11:30pm 26.8 26.4 14.2 46 7.5 ESE 9 17 5 9 1013.8 1013.7 0.0
26/11:00pm 26.8 26.5 14.5 46 7.4 SE 9 11 5 6 1013.8 1013.7 0.0
26/10:30pm 24.4 25.1 15.6 58 5.3 SE 6 7 3 4 1014.0 1013.9 0.0
26/10:00pm 24.2 25.3 15.7 59 5.1 SE 4 7 2 4 1014.1 1014.0 0.0
26/09:30pm 25.7 26.7 15.4 53 6.2 SE 4 4 2 2 1013.8 1013.7 0.0
26/09:00pm 26.8 27.3 14.9 48 7.2 SE 6 9 3 5 1013.5 1013.4 0.0
26/08:30pm 26.9 27.1 14.3 46 7.5 ESE 6 7 3 4 1013.0 1012.9 0.0
26/08:00pm 27.7 27.6 14.0 43 8.2 SE 7 11 4 6 1012.7 1012.6 0.0
26/07:30pm 27.3 27.8 14.0 44 7.9 ESE 4 7 2 4 1012.4 1012.3 0.0
26/07:00pm 28.2 27.8 12.9 38 9.0 SE 7 9 4 5 1012.0 1011.9 0.0
26/06:30pm 28.8 28.3 12.7 37 9.5 ESE 7 11 4 6 1011.5 1011.4 0.0
26/06:00pm 30.2 28.8 12.1 32 10.6 ESE 11 15 6 8 1011.2 1011.1 0.0
26/05:30pm 31.1 29.9 12.9 32 10.8 SE 11 19 6 10 1010.9 1010.8 0.0
26/05:00pm 31.9 30.4 13.2 32 11.2 ESE 13 24 7 13 1010.5 1010.4 0.0
26/04:30pm 32.3 31.3 13.5 32 11.3 ESE 11 17 6 9 1010.4 1010.3 0.0
26/04:00pm 32.7 31.4 13.8 31 11.5 ESE 13 24 7 13 1010.3 1010.2 0.0
26/03:30pm 32.8 31.4 13.4 30 11.7 ESE 13 17 7 9 1010.4 1010.3 0.0
26/03:00pm 32.9 31.2 13.5 30 11.7 SE 15 24 8 13 1010.5 1010.4 0.0
26/02:30pm 33.1 31.4 13.7 31 11.8 ESE 15 24 8 13 1010.9 1010.8 0.0
26/02:00pm 32.7 30.9 13.4 31 11.6 E 15 24 8 13 1011.1 1011.0 0.0
26/01:30pm 32.7 30.2 13.4 31 11.6 SE 19 30 10 16 1011.4 1011.3 0.0
26/01:00pm 32.6 30.4 13.3 31 11.6 ESE 17 26 9 14 1011.9 1011.8 0.0
26/12:30pm 32.6 30.2 13.8 32 11.4 ESE 19 32 10 17 1012.2 1012.1 0.0
26/12:00pm 31.4 29.6 14.5 35 10.3 SE 17 26 9 14 1012.5 1012.4 0.0
26/11:30am 30.8 29.0 14.4 36 10.0 SE 17 32 9 17 1013.0 1012.9 0.0
26/11:00am 30.2 28.3 15.1 40 9.3 SE 19 28 10 15 1013.5 1013.4 0.0
26/10:30am 29.4 27.6 15.5 43 8.5 SE 19 30 10 16 1013.6 1013.5 0.0
26/10:00am 28.5 26.7 16.1 47 7.7 SE 20 37 11 20 1013.7 1013.6 0.0
26/09:30am 27.3 26.2 17.2 54 6.3 SE 19 30 10 16 1013.5 1013.4 0.0
26/09:00am 26.9 26.1 17.1 55 6.1 SE 17 24 9 13 1013.3 1013.2 0.0
26/08:30am 26.1 25.8 16.4 55 6.0 SE 13 24 7 13 1013.1 1013.0 0.0
26/08:00am 25.6 26.0 16.2 56 5.8 SE 9 19 5 10 1013.0 1012.9 0.0
26/07:30am 24.0 24.9 16.5 63 4.6 ESE 7 11 4 6 1012.8 1012.7 0.0
26/07:00am 22.3 23.1 16.3 69 3.6 ESE 7 9 4 5 1012.2 1012.1 0.0
26/06:30am 22.3 23.3 16.3 69 3.6 ESE 6 7 3 4 1011.9 1011.8 0.0
26/06:00am 22.1 22.9 16.4 70 3.5 ESE 7 9 4 5 1011.8 1011.7 0.0
26/05:30am 20.5 21.9 16.5 78 2.4 ESE 4 6 2 3 1011.8 1011.7 0.0
26/05:00am 20.0 22.2 16.4 80 2.2 CALM 0 0 0 0 1011.8 1011.7 0.0
26/04:30am 20.3 22.5 16.5 79 2.3 CALM 0 0 0 0 1011.7 1011.6 0.0
26/04:00am 20.8 22.7 15.8 73 3.0 CALM 0 0 0 0 1011.7 1011.6 0.0
26/03:30am 20.8 22.4 14.9 69 3.5 CALM 0 0 0 0 1011.6 1011.5 0.0
26/03:00am 21.2 22.5 15.1 68 3.6 ESE 2 4 1 2 1011.4 1011.3 0.0
26/02:30am 22.1 22.7 14.2 61 4.6 ESE 4 6 2 3 1011.5 1011.4 0.0
26/02:00am 23.2 23.5 15.0 60 4.9 E 7 7 4 4 1011.7 1011.6 0.0
26/01:30am 21.9 24.5 18.5 81 2.1 ENE 2 2 1 1 1011.8 1011.7 0.0
26/01:00am 22.1 25.4 19.1 83 1.9 CALM 0 0 0 0 1011.8 1011.7 0.0
26/12:30am 22.9 25.0 17.1 70 3.6 ESE 2 4 1 2 1012.0 1011.9 0.0
26/12:00am 22.8 26.4 19.8 83 1.9 CALM 0 0 0 0 1012.0 1011.9 0.0
 
Date/Time
CST
Temp
°C
App
Temp
°C
Dew
Point
Rel
Hum
%
Delta-T
°C
Wind Press
QNH
hPa
Press
MSL
hPa
Rain
since 9 am
mm
Dir
 
Spd
km/h
Gust
km/h
Spd
kts
Gust
kts
25/11:30pm 22.9 26.6 19.9 83 1.9 CALM 0 0 0 0 1012.1 1012.0 0.0
25/11:00pm 23.5 26.9 19.4 78 2.6 CALM 0 0 0 0 1012.3 1012.2 0.0
25/10:30pm 23.8 27.0 18.9 74 3.1 CALM 0 0 0 0 1012.3 1012.2 0.0
25/10:00pm 24.4 27.3 18.3 69 3.8 CALM 0 0 0 0 1012.2 1012.1 0.0
25/09:30pm 24.9 27.5 17.6 64 4.6 CALM 0 0 0 0 1011.9 1011.8 0.0
25/09:00pm 26.9 28.3 17.4 56 6.0 ENE 6 7 3 4 1011.9 1011.8 0.0
25/08:30pm 28.0 28.1 15.6 46 7.6 NNE 9 11 5 6 1011.4 1011.3 0.0
25/08:00pm 26.8 28.3 16.7 54 6.3 NE 4 4 2 2 1010.7 1010.6 0.0
25/07:30pm 27.7 28.4 15.7 48 7.4 ENE 6 7 3 4 1010.1 1010.0 0.0
25/07:00pm 28.5 29.5 14.3 41 8.5 NE 2 4 1 2 1009.9 1009.8 0.0
25/06:30pm 30.4 30.5 12.8 34 10.4 ESE 4 6 2 3 1009.5 1009.4 0.0
25/06:00pm 32.8 32.3 10.8 26 12.8 E 4 7 2 4 1009.2 1009.1 0.0
25/05:30pm 34.1 32.1 8.7 21 14.4 ESE 9 13 5 7 1008.8 1008.7 0.0
25/05:00pm 34.5 31.8 7.5 19 15.0 ESE 11 17 6 9 1008.4 1008.3 0.0
25/04:30pm 35.2 33.4 9.6 21 14.8 SE 9 15 5 8 1008.3 1008.2 0.0
25/04:00pm 35.2 32.7 8.1 19 15.2 SE 11 19 6 10 1008.3 1008.2 0.0
25/03:30pm 35.1 32.4 7.2 18 15.5 SE 11 19 6 10 1008.2 1008.1 0.0
25/03:00pm 35.7 32.3 7.7 18 15.7 ESE 15 24 8 13 1008.2 1008.1 0.0
25/02:30pm 35.0 32.0 7.9 19 15.2 E 13 28 7 15 1008.4 1008.3 0.0
25/02:00pm 35.4 33.5 9.0 20 15.1 E 9 20 5 11 1008.8 1008.7 0.0
25/01:30pm 34.9 31.7 8.6 20 14.9 E 15 24 8 13 1009.4 1009.3 0.0
25/01:00pm 34.6 32.3 9.1 21 14.5 SE 11 20 6 11 1009.7 1009.6 0.0
25/12:30pm 33.7 32.5 12.7 28 12.6 SE 11 19 6 10 1010.0 1009.9 0.0
25/12:00pm 33.6 32.7 13.6 29 12.2 ESE 11 17 6 9 1010.4 1010.3 0.0
25/11:30am 33.1 32.0 13.2 30 12.0 SSE 11 19 6 10 1010.8 1010.7 0.0
25/11:00am 33.1 32.7 15.1 33 11.1 E 11 19 6 10 1011.2 1011.1 0.0
25/10:30am 31.6 32.5 16.7 40 9.4 SE 7 11 4 6 1011.5 1011.4 0.0
25/10:00am 30.6 33.9 19.0 50 7.5 CALM 0 4 0 2 1011.5 1011.4 0.0
25/09:30am 29.6 31.7 19.0 53 6.9 E 6 9 3 5 1011.4 1011.3 0.0
25/09:00am 29.0 30.8 17.5 49 7.3 E 4 6 2 3 1011.5 1011.4 0.0
25/08:30am 27.3 30.6 19.9 64 4.8 ENE 2 4 1 2 1011.4 1011.3 0.0
25/08:00am 25.7 29.1 20.9 75 3.2 ENE 4 6 2 3 1011.2 1011.1 0.0
25/07:30am 23.9 28.3 21.4 86 1.6 CALM 0 0 0 0 1011.1 1011.0 0.0
25/07:00am 21.9 25.9 20.5 92 0.9 CALM 0 0 0 0 1010.8 1010.7 0.0
25/06:30am 21.9 25.9 20.5 92 0.9 CALM 0 0 0 0 1010.5 1010.4 0.0
25/06:00am 22.2 26.3 20.7 91 1.0 CALM 0 0 0 0 1010.3 1010.2 0.0
25/05:30am 22.5 26.8 21.1 92 0.9 CALM 0 0 0 0 1010.3 1010.2 0.0
25/05:00am 22.8 27.2 21.3 91 1.0 CALM 0 0 0 0 1010.3 1010.2 0.0
25/04:30am 22.7 27.0 21.2 91 1.0 CALM 0 0 0 0 1010.3 1010.2 0.0
25/04:00am 22.9 27.2 21.2 90 1.1 CALM 0 0 0 0 1010.2 1010.1 0.0
25/03:30am 23.2 27.7 21.5 90 1.1 CALM 0 0 0 0 1010.3 1010.2 0.0
25/03:00am 23.4 27.8 21.3 88 1.4 CALM 0 0 0 0 1010.3 1010.2 0.0
25/02:30am 23.5 27.9 21.4 88 1.4 CALM 0 0 0 0 1010.2 1010.1 0.0
25/02:00am 23.5 27.4 20.4 83 2.0 CALM 0 0 0 0 1010.2 1010.1 0.0
25/01:30am 24.6 27.9 20.7 79 2.6 ESE 4 4 2 2 1010.4 1010.3 0.0
25/01:00am 24.7 27.9 20.6 78 2.7 E 4 4 2 2 1010.7 1010.6 0.0
25/12:30am 24.3 28.4 20.8 81 2.3 CALM 0 0 0 0 1011.0 1010.9 0.0
25/12:00am 24.6 28.4 20.9 80 2.4 ENE 2 4 1 2 1011.1 1011.0 0.0
 
Date/Time
CST
Temp
°C
App
Temp
°C
Dew
Point
Rel
Hum
%
Delta-T
°C
Wind Press
QNH
hPa
Press
MSL
hPa
Rain
since 9 am
mm
Dir
 
Spd
km/h
Gust
km/h
Spd
kts
Gust
kts
24/11:30pm 25.4 28.9 21.1 77 2.8 NNW 4 6 2 3 1011.0 1010.9 0.0
24/11:00pm 25.3 29.4 21.6 80 2.5 NW 2 2 1 1 1011.1 1011.0 0.0
24/10:30pm 25.5 30.0 21.6 79 2.6 CALM 0 0 0 0 1011.2 1011.1 0.0
24/10:00pm 25.4 29.8 21.3 78 2.7 CALM 0 0 0 0 1011.3 1011.2 0.0
24/09:30pm 26.2 30.7 21.6 76 3.1 CALM 0 0 0 0 1011.3 1011.2 0.0
24/09:00pm 26.6 31.2 21.8 75 3.2 CALM 0 0 0 0 1011.1 1011.0 0.0
24/08:30pm 27.3 30.9 21.3 69 4.0 NNW 4 6 2 3 1010.6 1010.5 0.0
24/08:00pm 28.2 31.8 21.2 65 4.7 NE 4 6 2 3 1010.0 1009.9 0.0
24/07:30pm 28.7 31.8 21.5 65 4.8 NNE 7 11 4 6 1009.6 1009.5 0.0
24/07:00pm 29.6 32.1 21.8 63 5.3 N 11 20 6 11 1008.9 1008.8 0.0
24/06:30pm 31.3 35.0 21.5 56 6.6 NW 4 6 2 3 1008.4 1008.3 0.0
24/06:00pm 33.3 36.1 19.7 44 9.0 NW 4 6 2 3 1008.0 1007.9 0.0
24/05:30pm 34.2 36.6 18.7 40 10.2 N 4 7 2 4 1007.6 1007.5 0.0
24/05:00pm 34.7 36.7 19.1 39 10.3 NW 7 11 4 6 1007.4 1007.3 0.0
24/04:30pm 35.0 36.5 18.1 36 11.0 NNW 7 13 4 7 1007.2 1007.1 0.0
24/04:00pm 35.2 37.4 18.3 36 11.0 WNW 4 7 2 4 1007.2 1007.1 0.0
24/03:30pm 35.4 37.3 18.5 37 11.1 W 6 11 3 6 1007.3 1007.2 0.0
24/03:00pm 35.5 38.0 19.0 37 10.9 N 4 9 2 5 1007.6 1007.5 0.0
24/02:30pm 34.3 36.3 18.8 40 10.2 NW 6 13 3 7 1007.8 1007.7 0.0
24/02:00pm 32.8 34.9 19.3 45 8.9 W 7 13 4 7 1008.2 1008.1 0.0
24/01:30pm 33.1 34.8 18.1 41 9.7 E 6 9 3 5 1008.5 1008.4 0.0
24/01:00pm 33.5 36.4 19.9 44 9.0 WNW 4 9 2 5 1009.0 1008.9 0.0
24/12:30pm 32.7 35.3 19.2 44 8.9 W 4 11 2 6 1009.5 1009.4 0.0
24/12:00pm 33.8 36.0 19.1 42 9.7 E 6 11 3 6 1009.9 1009.8 0.0
24/11:30am 32.6 35.4 20.8 49 7.9 NE 7 13 4 7 1010.4 1010.3 0.0
24/11:00am 32.2 35.3 21.4 53 7.3 N 7 11 4 6 1010.8 1010.7 0.0
24/10:30am 31.3 34.1 20.9 54 7.0 NE 7 17 4 9 1011.3 1011.2 0.0
24/10:00am 30.6 33.9 21.4 58 6.2 NE 6 13 3 7 1011.5 1011.4 0.0
24/09:30am 29.6 33.0 21.0 60 5.7 ENE 4 9 2 5 1011.7 1011.6 0.0
24/09:00am 29.4 33.3 21.9 64 5.1 E 4 9 2 5 1011.4 1011.3 0.0
24/08:30am 28.1 32.1 22.1 70 4.0 NE 4 7 2 4 1011.4 1011.3 0.0

Other Formats:

Comma delimited format used in spreadsheet applications
http://www.bom.gov.au/fwo/IDD60801/IDD60801.94110.axf

JavaScript Object Notation format (JSON) in row-major order
http://www.bom.gov.au/fwo/IDD60801/IDD60801.94110.json